createdAt,value
2023-08-07T00:00:25.507Z,13.16
2023-08-07T00:00:57.119Z,13.17
2023-08-07T00:01:28.691Z,13.19
2023-08-07T00:02:00.396Z,13.19
2023-08-07T00:02:31.996Z,13.16
2023-08-07T00:03:04.146Z,13.17
2023-08-07T00:03:36.823Z,13.18
2023-08-07T00:04:08.527Z,13.15
2023-08-07T00:04:40.149Z,13.16
2023-08-07T00:05:12.792Z,13.17
2023-08-07T00:05:46.473Z,13.14
2023-08-07T00:06:18.142Z,13.16
2023-08-07T00:06:49.760Z,13.16
2023-08-07T00:07:21.558Z,13.18
2023-08-07T00:07:53.256Z,13.17
2023-08-07T00:08:24.822Z,13.15
2023-08-07T00:08:56.776Z,13.19
2023-08-07T00:09:28.417Z,13.16
2023-08-07T00:10:01.805Z,13.15
2023-08-07T00:10:33.409Z,13.14
2023-08-07T00:11:08.952Z,13.15
2023-08-07T00:11:40.610Z,13.10
2023-08-07T00:12:12.284Z,13.15
2023-08-07T00:12:44.214Z,13.15
2023-08-07T00:13:15.800Z,13.12
2023-08-07T00:13:47.321Z,13.12
2023-08-07T00:14:18.862Z,13.11
2023-08-07T00:14:51.570Z,13.12
2023-08-07T00:15:23.257Z,13.15
2023-08-07T00:15:55.091Z,13.15
2023-08-07T00:16:26.686Z,13.14
2023-08-07T00:17:00.087Z,13.13
2023-08-07T00:17:31.873Z,13.09
2023-08-07T00:18:03.557Z,13.12
2023-08-07T00:18:35.138Z,13.10
2023-08-07T00:19:06.735Z,13.11
2023-08-07T00:19:38.328Z,13.14
2023-08-07T00:20:10.289Z,13.14
2023-08-07T00:20:41.823Z,13.12
2023-08-07T00:21:13.347Z,13.11
2023-08-07T00:21:44.887Z,13.09
2023-08-07T00:22:16.484Z,13.10
2023-08-07T00:22:48.113Z,13.09
2023-08-07T00:23:19.764Z,13.11
2023-08-07T00:23:51.440Z,13.08
2023-08-07T00:24:22.972Z,13.11
2023-08-07T00:24:54.881Z,13.07
2023-08-07T00:25:26.740Z,13.07
2023-08-07T00:25:58.309Z,13.11
2023-08-07T00:26:29.845Z,13.11
2023-08-07T00:27:01.379Z,13.10
2023-08-07T00:27:32.926Z,13.06
2023-08-07T00:28:04.724Z,13.12
2023-08-07T00:28:36.288Z,13.13
2023-08-07T00:29:07.856Z,13.10
2023-08-07T00:29:39.914Z,13.09
2023-08-07T00:30:12.375Z,13.09
2023-08-07T00:30:43.994Z,13.12
2023-08-07T00:31:15.665Z,13.11
2023-08-07T00:31:47.277Z,13.13
2023-08-07T00:32:19.649Z,13.13
2023-08-07T00:32:51.202Z,13.12
2023-08-07T00:33:22.875Z,13.12
2023-08-07T00:33:56.367Z,13.15
2023-08-07T00:34:28.302Z,13.14
2023-08-07T00:34:59.973Z,13.15
2023-08-07T00:35:31.501Z,13.11
2023-08-07T00:36:03.437Z,13.11
2023-08-07T00:36:36.146Z,13.13
2023-08-07T00:37:07.751Z,13.15
2023-08-07T00:37:40.108Z,13.17
2023-08-07T00:38:11.713Z,13.16
2023-08-07T00:38:43.258Z,13.16
2023-08-07T00:39:14.837Z,13.14
2023-08-07T00:39:46.382Z,13.13
2023-08-07T00:40:18.541Z,13.15
2023-08-07T00:40:50.113Z,13.12
2023-08-07T00:41:21.732Z,13.11
2023-08-07T00:41:53.312Z,13.07
2023-08-07T00:42:24.946Z,13.15
2023-08-07T00:42:56.478Z,13.12
2023-08-07T00:43:28.031Z,13.10
2023-08-07T00:43:59.580Z,13.16
2023-08-07T00:44:31.118Z,13.15
2023-08-07T00:45:02.691Z,13.12
2023-08-07T00:45:38.310Z,13.11
2023-08-07T00:46:10.052Z,13.14
2023-08-07T00:46:41.830Z,13.13
2023-08-07T00:47:13.866Z,13.16
2023-08-07T00:47:45.711Z,13.16
2023-08-07T00:48:17.636Z,13.16
2023-08-07T00:48:49.237Z,13.13
2023-08-07T00:49:21.281Z,13.10
2023-08-07T00:49:52.837Z,13.10
2023-08-07T00:50:28.463Z,13.08
2023-08-07T00:51:08.912Z,13.06
2023-08-07T00:51:40.758Z,13.08
2023-08-07T00:52:12.395Z,13.08
2023-08-07T00:52:44.036Z,13.07
2023-08-07T00:53:15.808Z,13.06
2023-08-07T00:53:48.118Z,13.09
2023-08-07T00:54:20.607Z,13.08
2023-08-07T00:54:52.298Z,13.07
2023-08-07T00:55:23.905Z,13.09
2023-08-07T00:55:55.609Z,13.10
2023-08-07T00:56:27.405Z,13.11
2023-08-07T00:57:11.824Z,13.13
2023-08-07T00:57:43.393Z,13.12
2023-08-07T00:58:16.038Z,13.11
2023-08-07T00:58:47.687Z,13.08
2023-08-07T00:59:19.986Z,13.10
2023-08-07T00:59:51.859Z,13.08
2023-08-07T01:00:23.714Z,13.06
2023-08-07T01:00:56.474Z,13.09
2023-08-07T01:01:28.497Z,13.12
2023-08-07T01:02:00.177Z,13.09
2023-08-07T01:02:32.287Z,13.10
2023-08-07T01:03:06.843Z,13.10
2023-08-07T01:03:39.029Z,13.11
2023-08-07T01:04:10.720Z,13.10
2023-08-07T01:04:42.341Z,13.10
2023-08-07T01:05:13.883Z,13.12
2023-08-07T01:05:45.653Z,13.10
2023-08-07T01:06:17.308Z,13.15
2023-08-07T01:06:49.041Z,13.15
2023-08-07T01:07:20.770Z,13.12
2023-08-07T01:07:55.753Z,13.12
2023-08-07T01:08:28.478Z,13.15
2023-08-07T01:09:00.635Z,13.13
2023-08-07T01:09:32.277Z,13.12
2023-08-07T01:10:05.037Z,13.10
2023-08-07T01:11:01.410Z,13.11
2023-08-07T01:11:48.986Z,13.13
2023-08-07T01:12:21.522Z,13.11
2023-08-07T01:13:01.209Z,13.12
2023-08-07T01:13:49.360Z,13.14
2023-08-07T01:14:47.991Z,13.15
2023-08-07T01:15:27.438Z,13.13
2023-08-07T01:16:03.571Z,13.12
2023-08-07T01:16:41.071Z,13.10
2023-08-07T01:17:16.137Z,13.11
2023-08-07T01:17:48.233Z,13.09
2023-08-07T01:18:20.242Z,13.09
2023-08-07T01:18:52.089Z,13.12
2023-08-07T01:19:29.974Z,13.17
2023-08-07T01:20:01.794Z,13.13
2023-08-07T01:20:33.431Z,13.14
2023-08-07T01:21:05.109Z,13.13
2023-08-07T01:21:36.823Z,13.14
2023-08-07T01:22:18.327Z,13.16
2023-08-07T01:22:49.976Z,13.15
2023-08-07T01:23:21.519Z,13.12
2023-08-07T01:23:53.082Z,13.11
2023-08-07T01:24:24.704Z,13.10
2023-08-07T01:24:56.404Z,13.11
2023-08-07T01:25:29.600Z,13.15
2023-08-07T01:26:01.160Z,13.14
2023-08-07T01:26:32.923Z,13.17
2023-08-07T01:27:19.656Z,13.13
2023-08-07T01:28:04.051Z,13.15
2023-08-07T01:28:39.643Z,13.14
2023-08-07T01:29:18.620Z,13.14
2023-08-07T01:30:00.945Z,13.13
2023-08-07T01:30:38.486Z,13.12
2023-08-07T01:31:12.940Z,13.12
2023-08-07T01:31:45.879Z,13.14
2023-08-07T01:32:23.734Z,13.11
2023-08-07T01:33:07.144Z,12.99
2023-08-07T01:33:49.505Z,13.07
2023-08-07T01:34:25.145Z,13.08
2023-08-07T01:34:57.655Z,13.04
2023-08-07T01:35:33.992Z,13.08
2023-08-07T01:36:09.843Z,13.06
2023-08-07T01:36:41.659Z,13.06
2023-08-07T01:37:13.681Z,13.07
2023-08-07T01:37:46.598Z,13.07
2023-08-07T01:38:18.761Z,13.08
2023-08-07T01:38:56.066Z,13.08
2023-08-07T01:39:27.974Z,12.98
2023-08-07T01:40:01.691Z,13.02
2023-08-07T01:40:33.969Z,13.05
2023-08-07T01:41:05.829Z,13.03
2023-08-07T01:41:37.793Z,13.04
2023-08-07T01:42:10.841Z,13.04
2023-08-07T01:42:42.603Z,13.03
2023-08-07T01:43:14.172Z,13.02
2023-08-07T01:43:46.151Z,13.00
2023-08-07T01:44:17.698Z,13.02
2023-08-07T01:44:49.275Z,13.04
2023-08-07T01:45:25.134Z,13.03
2023-08-07T01:45:56.767Z,12.97
2023-08-07T01:46:28.460Z,12.94
2023-08-07T01:47:00.078Z,12.92
2023-08-07T01:47:31.916Z,12.93
2023-08-07T01:48:03.963Z,12.94
2023-08-07T01:48:35.734Z,12.95
2023-08-07T01:49:08.116Z,12.96
2023-08-07T01:49:41.580Z,12.94
2023-08-07T01:50:13.205Z,12.90
2023-08-07T01:50:44.891Z,12.94
2023-08-07T01:51:16.530Z,12.92
2023-08-07T01:51:48.034Z,12.94
2023-08-07T01:52:19.926Z,12.93
2023-08-07T01:52:51.679Z,12.96
2023-08-07T01:53:23.306Z,12.97
2023-08-07T01:53:54.984Z,12.97
2023-08-07T01:54:26.586Z,12.97
2023-08-07T01:54:58.204Z,12.97
2023-08-07T01:55:29.944Z,12.97
2023-08-07T01:56:01.733Z,12.93
2023-08-07T01:56:33.352Z,12.96
2023-08-07T01:57:05.432Z,12.91
2023-08-07T01:57:36.983Z,12.91
2023-08-07T01:58:09.013Z,12.93
2023-08-07T01:58:40.615Z,12.93
2023-08-07T01:59:12.268Z,12.90
2023-08-07T01:59:45.831Z,12.91
2023-08-07T02:00:18.056Z,12.92
2023-08-07T02:00:49.638Z,12.92
2023-08-07T02:01:21.215Z,12.89
2023-08-07T02:01:52.887Z,12.87
2023-08-07T02:02:24.813Z,12.88
2023-08-07T02:02:56.566Z,12.87
2023-08-07T02:03:28.655Z,12.87
2023-08-07T02:04:00.504Z,12.91
2023-08-07T02:04:32.514Z,12.87
2023-08-07T02:05:05.039Z,12.81
2023-08-07T02:05:36.724Z,12.83
2023-08-07T02:06:08.448Z,12.82
2023-08-07T02:06:40.115Z,12.85
2023-08-07T02:07:11.738Z,12.84
2023-08-07T02:07:43.677Z,12.76
2023-08-07T02:08:15.288Z,12.80
2023-08-07T02:08:46.813Z,12.84
2023-08-07T02:09:18.364Z,12.82
2023-08-07T02:09:50.050Z,12.80
2023-08-07T02:10:21.639Z,12.79
2023-08-07T02:10:53.198Z,12.80
2023-08-07T02:11:25.360Z,12.79
2023-08-07T02:11:56.916Z,12.78
2023-08-07T02:12:30.809Z,12.81
2023-08-07T02:13:03.923Z,12.75
2023-08-07T02:13:35.514Z,12.79
2023-08-07T02:14:07.124Z,12.81
2023-08-07T02:14:38.701Z,12.80
2023-08-07T02:15:10.518Z,12.77
2023-08-07T02:15:42.168Z,12.80
2023-08-07T02:16:13.730Z,12.77
2023-08-07T02:16:45.543Z,12.77
2023-08-07T02:17:18.299Z,12.79
2023-08-07T02:17:50.143Z,12.74
2023-08-07T02:18:22.490Z,12.74
2023-08-07T02:18:54.066Z,12.75
2023-08-07T02:19:25.618Z,12.77
2023-08-07T02:19:57.934Z,12.74
2023-08-07T02:20:29.569Z,12.75
2023-08-07T02:21:01.165Z,12.74
2023-08-07T02:21:33.083Z,12.75
2023-08-07T02:22:04.993Z,12.72
2023-08-07T02:22:36.589Z,12.72
2023-08-07T02:23:08.220Z,12.71
2023-08-07T02:23:40.000Z,12.70
2023-08-07T02:24:11.577Z,12.72
2023-08-07T02:24:44.624Z,12.70
2023-08-07T02:25:16.686Z,12.74
2023-08-07T02:25:49.597Z,12.71
2023-08-07T02:26:21.117Z,12.68
2023-08-07T02:26:52.738Z,12.68
2023-08-07T02:27:24.639Z,12.66
2023-08-07T02:27:56.221Z,12.68
2023-08-07T02:28:28.530Z,12.69
2023-08-07T02:29:02.835Z,12.65
2023-08-07T02:29:35.419Z,12.70
2023-08-07T02:30:07.538Z,12.65
2023-08-07T02:30:39.104Z,12.66
2023-08-07T02:31:10.732Z,12.72
2023-08-07T02:31:42.347Z,12.73
2023-08-07T02:32:14.034Z,12.68
2023-08-07T02:32:45.820Z,12.71
2023-08-07T02:33:17.447Z,12.69
2023-08-07T02:33:49.910Z,12.69
2023-08-07T02:34:21.558Z,12.68
2023-08-07T02:34:53.106Z,12.67
2023-08-07T02:35:24.624Z,12.68
2023-08-07T02:35:56.706Z,12.69
2023-08-07T02:36:28.317Z,12.71
2023-08-07T02:37:00.536Z,12.67
2023-08-07T02:37:32.103Z,12.65
2023-08-07T02:38:03.947Z,12.64
2023-08-07T02:38:35.624Z,12.63
2023-08-07T02:39:07.826Z,12.65
2023-08-07T02:39:39.444Z,12.63
2023-08-07T02:40:12.104Z,12.68
2023-08-07T02:40:44.551Z,12.71
2023-08-07T02:41:16.165Z,12.61
2023-08-07T02:41:47.739Z,12.64
2023-08-07T02:42:19.314Z,12.67
2023-08-07T02:42:51.087Z,12.64
2023-08-07T02:43:22.650Z,12.64
2023-08-07T02:43:54.450Z,12.69
2023-08-07T02:44:26.052Z,12.67
2023-08-07T02:44:57.792Z,12.67
2023-08-07T02:45:29.464Z,12.65
2023-08-07T02:46:01.082Z,12.65
2023-08-07T02:46:32.735Z,12.65
2023-08-07T02:47:04.781Z,12.66
2023-08-07T02:47:36.502Z,12.66
2023-08-07T02:48:08.172Z,12.67
2023-08-07T02:48:41.075Z,12.69
2023-08-07T02:49:14.143Z,12.72
2023-08-07T02:49:45.879Z,12.71
2023-08-07T02:50:17.528Z,12.70
2023-08-07T02:50:50.046Z,12.71
2023-08-07T02:51:21.612Z,12.69
2023-08-07T02:51:53.269Z,12.69
2023-08-07T02:52:24.977Z,12.72
2023-08-07T02:52:56.526Z,12.69
2023-08-07T02:53:28.114Z,12.69
2023-08-07T02:53:59.747Z,12.66
2023-08-07T02:54:31.367Z,12.68
2023-08-07T02:55:03.207Z,12.66
2023-08-07T02:55:34.814Z,12.68
2023-08-07T02:56:06.429Z,12.68
2023-08-07T02:56:38.059Z,12.67
2023-08-07T02:57:09.781Z,12.68
2023-08-07T02:57:41.372Z,12.66
2023-08-07T02:58:12.965Z,12.71
2023-08-07T02:58:44.538Z,12.68
2023-08-07T02:59:16.767Z,12.67
2023-08-07T02:59:48.538Z,12.70
2023-08-07T03:00:22.255Z,12.71
2023-08-07T03:00:55.151Z,12.67
2023-08-07T03:01:28.712Z,12.66
2023-08-07T03:02:00.375Z,12.70
2023-08-07T03:02:32.051Z,12.66
2023-08-07T03:03:03.739Z,12.65
2023-08-07T03:03:35.736Z,12.67
2023-08-07T03:04:07.520Z,12.67
2023-08-07T03:04:39.106Z,12.67
2023-08-07T03:05:10.933Z,12.67
2023-08-07T03:05:50.221Z,12.69
2023-08-07T03:06:22.880Z,12.67
2023-08-07T03:06:54.772Z,12.69
2023-08-07T03:07:26.548Z,12.67
2023-08-07T03:07:58.154Z,12.68
2023-08-07T03:08:29.759Z,12.67
2023-08-07T03:09:01.325Z,12.68
2023-08-07T03:09:32.946Z,12.66
2023-08-07T03:10:05.244Z,12.67
2023-08-07T03:10:36.838Z,12.65
2023-08-07T03:11:08.415Z,12.68
2023-08-07T03:11:40.070Z,12.63
2023-08-07T03:12:11.640Z,12.63
2023-08-07T03:12:43.164Z,12.63
2023-08-07T03:13:14.778Z,12.63
2023-08-07T03:13:46.448Z,12.63
2023-08-07T03:14:17.993Z,12.71
2023-08-07T03:14:49.549Z,12.68
2023-08-07T03:15:21.143Z,12.67
2023-08-07T03:16:00.910Z,12.69
2023-08-07T03:16:32.739Z,12.68
2023-08-07T03:17:04.642Z,12.66
2023-08-07T03:17:36.759Z,12.68
2023-08-07T03:18:08.379Z,12.64
2023-08-07T03:18:40.012Z,12.65
2023-08-07T03:19:11.611Z,12.69
2023-08-07T03:19:44.479Z,12.68
2023-08-07T03:20:17.643Z,12.66
2023-08-07T03:20:49.230Z,12.67
2023-08-07T03:21:20.809Z,12.71
2023-08-07T03:21:52.542Z,12.69
2023-08-07T03:22:24.698Z,12.63
2023-08-07T03:22:56.355Z,12.64
2023-08-07T03:23:28.566Z,12.68
2023-08-07T03:24:01.752Z,12.67
2023-08-07T03:24:33.422Z,12.71
2023-08-07T03:25:06.044Z,12.67
2023-08-07T03:25:37.926Z,12.69
2023-08-07T03:26:48.445Z,12.68
2023-08-07T03:27:20.486Z,12.67
2023-08-07T03:27:52.118Z,12.64
2023-08-07T03:28:23.713Z,12.65
2023-08-07T03:28:55.311Z,12.67
2023-08-07T03:29:26.937Z,12.63
2023-08-07T03:29:59.836Z,12.66
2023-08-07T03:30:34.328Z,12.62
2023-08-07T03:31:05.973Z,12.64
2023-08-07T03:31:40.055Z,12.63
2023-08-07T03:32:12.080Z,12.60
2023-08-07T03:32:44.008Z,12.66
2023-08-07T03:33:18.131Z,12.63
2023-08-07T03:33:49.697Z,12.63
2023-08-07T03:34:23.132Z,12.57
2023-08-07T03:34:54.674Z,12.58
2023-08-07T03:35:26.298Z,12.63
2023-08-07T03:35:58.000Z,12.62
2023-08-07T03:36:29.638Z,12.60
2023-08-07T03:37:01.596Z,12.63
2023-08-07T03:37:33.221Z,12.64
2023-08-07T03:38:04.968Z,12.67
2023-08-07T03:38:36.738Z,12.62
2023-08-07T03:39:08.901Z,12.64
2023-08-07T03:39:40.647Z,12.60
2023-08-07T03:40:12.408Z,12.62
2023-08-07T03:40:44.784Z,12.56
2023-08-07T03:41:16.397Z,12.60
2023-08-07T03:41:48.345Z,12.64
2023-08-07T03:42:19.983Z,12.63
2023-08-07T03:42:52.402Z,12.60
2023-08-07T03:43:24.223Z,12.58
2023-08-07T03:43:56.395Z,12.61
2023-08-07T03:44:28.429Z,12.60
2023-08-07T03:45:00.200Z,12.61
2023-08-07T03:45:31.834Z,12.58
2023-08-07T03:46:04.416Z,12.57
2023-08-07T03:46:36.316Z,12.60
2023-08-07T03:47:07.908Z,12.58
2023-08-07T03:47:39.704Z,12.59
2023-08-07T03:48:11.296Z,12.61
2023-08-07T03:48:42.859Z,12.60
2023-08-07T03:49:15.214Z,12.59
2023-08-07T03:49:46.770Z,12.59
2023-08-07T03:50:18.390Z,12.63
2023-08-07T03:50:49.995Z,12.57
2023-08-07T03:51:22.672Z,12.50
2023-08-07T03:51:57.497Z,12.56
2023-08-07T03:52:29.184Z,12.57
2023-08-07T03:53:00.900Z,12.55
2023-08-07T03:53:32.793Z,12.54
2023-08-07T03:54:04.472Z,12.57
2023-08-07T03:54:36.104Z,12.56
2023-08-07T03:55:08.030Z,12.57
2023-08-07T03:55:40.546Z,12.59
2023-08-07T03:56:12.133Z,12.62
2023-08-07T03:56:43.811Z,12.59
2023-08-07T03:57:15.406Z,12.62
2023-08-07T03:57:47.741Z,12.59
2023-08-07T03:58:19.325Z,12.59
2023-08-07T03:58:51.368Z,12.63
2023-08-07T03:59:25.104Z,12.60
2023-08-07T03:59:57.923Z,12.62
2023-08-07T04:00:29.719Z,12.59
2023-08-07T04:01:01.377Z,12.60
2023-08-07T04:01:33.037Z,12.62
2023-08-07T04:02:05.001Z,12.59
2023-08-07T04:02:37.128Z,12.60
2023-08-07T04:03:08.754Z,12.62
2023-08-07T04:03:40.447Z,12.60
2023-08-07T04:04:12.122Z,12.60
2023-08-07T04:04:44.613Z,12.59
2023-08-07T04:05:16.202Z,12.59
2023-08-07T04:05:47.810Z,12.63
2023-08-07T04:06:19.511Z,12.63
2023-08-07T04:06:51.208Z,12.59
2023-08-07T04:07:23.352Z,12.58
2023-08-07T04:07:54.963Z,12.61
2023-08-07T04:08:28.349Z,12.61
2023-08-07T04:09:00.138Z,12.57
2023-08-07T04:09:32.853Z,12.60
2023-08-07T04:10:04.783Z,12.63
2023-08-07T04:10:36.322Z,12.59
2023-08-07T04:11:08.632Z,12.62
2023-08-07T04:11:41.263Z,12.61
2023-08-07T04:12:12.904Z,12.61
2023-08-07T04:12:44.725Z,12.55
2023-08-07T04:13:16.323Z,12.55
2023-08-07T04:13:47.866Z,12.55
2023-08-07T04:14:19.426Z,12.55
2023-08-07T04:14:51.081Z,12.58
2023-08-07T04:15:22.670Z,12.56
2023-08-07T04:15:54.350Z,12.57
2023-08-07T04:16:26.490Z,12.57
2023-08-07T04:16:58.603Z,12.56
2023-08-07T04:17:30.333Z,12.56
2023-08-07T04:18:02.243Z,12.59
2023-08-07T04:18:34.458Z,12.57
2023-08-07T04:19:10.465Z,12.58
2023-08-07T04:19:42.152Z,12.61
2023-08-07T04:20:13.857Z,12.61
2023-08-07T04:20:55.188Z,12.58
2023-08-07T04:21:26.810Z,12.61
2023-08-07T04:21:58.408Z,12.60
2023-08-07T04:22:30.203Z,12.60
2023-08-07T04:23:01.949Z,12.64
2023-08-07T04:23:33.964Z,12.63
2023-08-07T04:24:11.389Z,12.63
2023-08-07T04:24:43.047Z,12.65
2023-08-07T04:25:14.872Z,12.64
2023-08-07T04:25:48.279Z,12.64
2023-08-07T04:26:19.901Z,12.67
2023-08-07T04:26:51.642Z,12.66
2023-08-07T04:27:23.202Z,12.67
2023-08-07T04:27:54.738Z,12.65
2023-08-07T04:28:29.520Z,12.67
2023-08-07T04:29:01.350Z,12.66
2023-08-07T04:29:32.956Z,12.68
2023-08-07T04:30:06.904Z,12.66
2023-08-07T04:30:38.530Z,12.71
2023-08-07T04:31:10.128Z,12.72
2023-08-07T04:31:41.705Z,12.72
2023-08-07T04:32:13.318Z,12.68
2023-08-07T04:32:44.912Z,12.69
2023-08-07T04:33:16.506Z,12.68
2023-08-07T04:33:48.025Z,12.71
2023-08-07T04:34:20.108Z,12.71
2023-08-07T04:34:51.752Z,12.72
2023-08-07T04:35:23.381Z,12.72
2023-08-07T04:35:54.925Z,12.74
2023-08-07T04:36:26.507Z,12.77
2023-08-07T04:36:58.387Z,12.75
2023-08-07T04:37:31.519Z,12.76
2023-08-07T04:38:03.778Z,12.78
2023-08-07T04:38:35.453Z,12.74
2023-08-07T04:39:07.074Z,12.79
2023-08-07T04:39:38.757Z,12.81
2023-08-07T04:40:11.084Z,12.78
2023-08-07T04:40:46.928Z,12.78
2023-08-07T04:41:18.459Z,12.80
2023-08-07T04:41:52.829Z,12.83
2023-08-07T04:42:24.523Z,12.81
2023-08-07T04:42:56.253Z,12.83
2023-08-07T04:43:29.020Z,12.82
2023-08-07T04:44:00.595Z,12.80
2023-08-07T04:44:32.131Z,12.83
2023-08-07T04:45:03.914Z,12.82
2023-08-07T04:45:37.712Z,12.79
2023-08-07T04:46:10.670Z,12.81
2023-08-07T04:46:42.528Z,12.80
2023-08-07T04:47:14.100Z,12.79
2023-08-07T04:47:45.737Z,12.78
2023-08-07T04:48:18.940Z,12.75
2023-08-07T04:48:50.808Z,12.76
2023-08-07T04:49:22.426Z,12.77
2023-08-07T04:49:54.722Z,12.75
2023-08-07T04:50:26.803Z,12.77
2023-08-07T04:50:59.029Z,12.80
2023-08-07T04:51:32.364Z,12.83
2023-08-07T04:52:16.737Z,12.84
2023-08-07T04:52:52.453Z,12.86
2023-08-07T04:53:24.123Z,12.85
2023-08-07T04:53:57.784Z,12.84
2023-08-07T04:54:29.341Z,12.89
2023-08-07T04:55:01.158Z,12.90
2023-08-07T04:55:32.981Z,12.91
2023-08-07T04:56:04.828Z,12.93
2023-08-07T04:56:36.499Z,12.97
2023-08-07T04:57:08.645Z,12.99
2023-08-07T04:57:40.257Z,13.00
2023-08-07T04:58:11.796Z,12.98
2023-08-07T04:58:43.385Z,13.00
2023-08-07T04:59:15.060Z,13.02
2023-08-07T04:59:46.693Z,13.03
2023-08-07T05:00:18.404Z,13.03
2023-08-07T05:00:56.172Z,13.06
2023-08-07T05:01:27.847Z,13.10
2023-08-07T05:01:59.558Z,13.12
2023-08-07T05:02:31.209Z,13.11
2023-08-07T05:03:03.233Z,13.16
2023-08-07T05:03:35.035Z,13.20
2023-08-07T05:04:07.511Z,13.23
2023-08-07T05:04:39.136Z,13.20
2023-08-07T05:05:10.833Z,13.23
2023-08-07T05:05:42.483Z,13.25
2023-08-07T05:06:14.064Z,13.24
2023-08-07T05:06:45.669Z,13.30
2023-08-07T05:07:18.262Z,13.30
2023-08-07T05:07:49.957Z,13.34
2023-08-07T05:08:21.544Z,13.41
2023-08-07T05:08:53.145Z,13.40
2023-08-07T05:09:24.770Z,13.43
2023-08-07T05:09:56.353Z,13.43
2023-08-07T05:10:27.968Z,13.46
2023-08-07T05:10:59.591Z,13.45
2023-08-07T05:11:31.145Z,13.52
2023-08-07T05:12:02.750Z,13.48
2023-08-07T05:12:34.432Z,13.50
2023-08-07T05:13:06.044Z,13.52
2023-08-07T05:13:37.648Z,13.56
2023-08-07T05:14:09.185Z,13.56
2023-08-07T05:14:40.716Z,13.63
2023-08-07T05:15:12.420Z,13.67
2023-08-07T05:15:44.045Z,13.65
2023-08-07T05:16:15.735Z,13.66
2023-08-07T05:16:47.865Z,13.67
2023-08-07T05:17:19.468Z,13.69
2023-08-07T05:17:52.034Z,13.67
2023-08-07T05:18:23.882Z,13.71
2023-08-07T05:18:56.149Z,13.73
2023-08-07T05:19:27.733Z,13.74
2023-08-07T05:19:59.354Z,13.75
2023-08-07T05:20:30.924Z,13.75
2023-08-07T05:21:02.941Z,13.75
2023-08-07T05:21:34.589Z,13.77
2023-08-07T05:22:06.316Z,13.78
2023-08-07T05:22:38.720Z,13.78
2023-08-07T05:23:11.519Z,13.77
2023-08-07T05:23:43.122Z,13.73
2023-08-07T05:24:14.658Z,13.74
2023-08-07T05:24:46.584Z,13.72
2023-08-07T05:25:19.477Z,13.70
2023-08-07T05:25:51.094Z,13.70
2023-08-07T05:26:22.904Z,13.74
2023-08-07T05:26:54.444Z,13.73
2023-08-07T05:27:26.017Z,13.67
2023-08-07T05:27:57.599Z,13.67
2023-08-07T05:28:29.347Z,13.62
2023-08-07T05:29:00.956Z,13.64
2023-08-07T05:29:32.508Z,13.60
2023-08-07T05:30:05.413Z,13.60
2023-08-07T05:30:37.071Z,13.59
2023-08-07T05:31:08.640Z,13.59
2023-08-07T05:31:40.248Z,13.59
2023-08-07T05:32:12.794Z,13.58
2023-08-07T05:32:44.495Z,13.56
2023-08-07T05:33:16.710Z,13.58
2023-08-07T05:33:48.354Z,13.55
2023-08-07T05:34:20.038Z,13.55
2023-08-07T05:34:51.824Z,13.58
2023-08-07T05:35:23.362Z,13.58
2023-08-07T05:35:56.586Z,13.63
2023-08-07T05:36:28.260Z,13.65
2023-08-07T05:36:59.881Z,13.67
2023-08-07T05:37:32.781Z,13.66
2023-08-07T05:38:04.574Z,13.66
2023-08-07T05:38:36.256Z,13.66
2023-08-07T05:39:08.320Z,13.66
2023-08-07T05:39:40.053Z,13.68
2023-08-07T05:40:13.224Z,13.72
2023-08-07T05:40:45.104Z,13.72
2023-08-07T05:41:17.413Z,13.74
2023-08-07T05:41:49.000Z,13.77
2023-08-07T05:42:20.617Z,13.83
2023-08-07T05:42:52.158Z,13.87
2023-08-07T05:43:24.226Z,13.91
2023-08-07T05:43:55.745Z,13.98
2023-08-07T05:44:27.406Z,13.94
2023-08-07T05:44:59.982Z,14.01
2023-08-07T05:45:31.597Z,14.00
2023-08-07T05:46:03.173Z,14.05
2023-08-07T05:46:34.799Z,14.08
2023-08-07T05:47:07.019Z,14.05
2023-08-07T05:47:38.802Z,14.06
2023-08-07T05:48:10.528Z,14.01
2023-08-07T05:48:42.100Z,13.99
2023-08-07T05:49:13.637Z,13.96
2023-08-07T05:49:45.225Z,13.90
2023-08-07T05:50:16.994Z,13.86
2023-08-07T05:50:48.632Z,13.82
2023-08-07T05:51:20.819Z,13.81
2023-08-07T05:51:52.406Z,13.79
2023-08-07T05:52:24.048Z,13.80
2023-08-07T05:52:55.664Z,13.79
2023-08-07T05:53:27.250Z,13.81
2023-08-07T05:53:58.847Z,13.79
2023-08-07T05:54:30.386Z,13.78
2023-08-07T05:55:01.980Z,13.77
2023-08-07T05:55:33.773Z,13.73
2023-08-07T05:56:05.501Z,13.72
2023-08-07T05:56:38.677Z,13.76
2023-08-07T05:57:10.704Z,13.70
2023-08-07T05:57:42.447Z,13.77
2023-08-07T05:58:14.072Z,13.78
2023-08-07T05:58:45.730Z,13.81
2023-08-07T05:59:17.386Z,13.81
2023-08-07T05:59:48.924Z,13.77
2023-08-07T06:00:20.722Z,13.72
2023-08-07T06:00:52.879Z,13.72
2023-08-07T06:01:30.480Z,13.72
2023-08-07T06:02:02.509Z,13.70
2023-08-07T06:02:34.417Z,13.70
2023-08-07T06:03:06.034Z,13.70
2023-08-07T06:03:37.636Z,13.67
2023-08-07T06:04:10.220Z,13.69
2023-08-07T06:04:42.156Z,13.68
2023-08-07T06:05:17.468Z,13.65
2023-08-07T06:05:49.072Z,13.69
2023-08-07T06:06:20.708Z,13.69
2023-08-07T06:06:52.299Z,13.70
2023-08-07T06:07:23.921Z,13.72
2023-08-07T06:07:55.487Z,13.72
2023-08-07T06:08:27.074Z,13.72
2023-08-07T06:09:00.810Z,13.72
2023-08-07T06:09:32.765Z,13.71
2023-08-07T06:10:04.690Z,13.68
2023-08-07T06:10:54.830Z,13.67
2023-08-07T06:11:26.421Z,13.66
2023-08-07T06:11:58.721Z,13.72
2023-08-07T06:12:30.552Z,13.69
2023-08-07T06:13:02.129Z,13.65
2023-08-07T06:13:36.405Z,13.72
2023-08-07T06:14:12.161Z,13.69
2023-08-07T06:14:44.301Z,13.68
2023-08-07T06:15:15.826Z,13.70
2023-08-07T06:15:47.736Z,13.79
2023-08-07T06:16:19.498Z,13.81
2023-08-07T06:16:51.352Z,13.80
2023-08-07T06:17:22.967Z,13.78
2023-08-07T06:17:54.610Z,13.80
2023-08-07T06:18:26.357Z,13.84
2023-08-07T06:18:58.191Z,13.88
2023-08-07T06:19:32.572Z,13.90
2023-08-07T06:20:06.200Z,13.96
2023-08-07T06:20:37.785Z,14.00
2023-08-07T06:21:11.736Z,14.00
2023-08-07T06:21:43.332Z,14.03
2023-08-07T06:22:14.891Z,14.05
2023-08-07T06:22:46.437Z,14.05
2023-08-07T06:23:18.065Z,13.99
2023-08-07T06:23:49.677Z,14.04
2023-08-07T06:24:21.353Z,14.05
2023-08-07T06:24:53.097Z,14.06
2023-08-07T06:25:24.688Z,14.06
2023-08-07T06:25:59.754Z,14.01
2023-08-07T06:26:31.507Z,14.04
2023-08-07T06:27:03.879Z,14.03
2023-08-07T06:27:35.762Z,14.04
2023-08-07T06:28:07.316Z,14.05
2023-08-07T06:28:38.865Z,14.03
2023-08-07T06:29:10.477Z,14.01
2023-08-07T06:29:44.844Z,14.02
2023-08-07T06:30:16.399Z,13.98
2023-08-07T06:30:48.011Z,13.95
2023-08-07T06:31:19.735Z,13.93
2023-08-07T06:31:51.450Z,13.92
2023-08-07T06:32:23.271Z,13.91
2023-08-07T06:32:54.937Z,13.84
2023-08-07T06:33:26.519Z,13.83
2023-08-07T06:33:58.167Z,13.84
2023-08-07T06:34:29.719Z,13.79
2023-08-07T06:35:01.446Z,13.73
2023-08-07T06:35:38.782Z,13.71
2023-08-07T06:36:10.438Z,13.64
2023-08-07T06:36:42.056Z,13.75
2023-08-07T06:37:13.701Z,13.77
2023-08-07T06:37:45.242Z,13.80
2023-08-07T06:38:16.841Z,13.74
2023-08-07T06:38:48.637Z,13.74
2023-08-07T06:39:20.427Z,13.68
2023-08-07T06:39:52.040Z,13.70
2023-08-07T06:40:23.612Z,13.70
2023-08-07T06:40:55.217Z,13.67
2023-08-07T06:41:26.851Z,13.65
2023-08-07T06:41:58.902Z,13.68
2023-08-07T06:42:35.715Z,13.72
2023-08-07T06:43:07.263Z,13.72
2023-08-07T06:43:38.807Z,13.70
2023-08-07T06:44:10.339Z,13.72
2023-08-07T06:44:45.321Z,13.73
2023-08-07T06:45:16.941Z,13.72
2023-08-07T06:45:50.559Z,13.67
2023-08-07T06:46:25.511Z,13.69
2023-08-07T06:46:57.282Z,13.71
2023-08-07T06:47:28.988Z,13.66
2023-08-07T06:48:00.621Z,13.68
2023-08-07T06:48:33.530Z,13.68
2023-08-07T06:49:05.077Z,13.68
2023-08-07T06:49:36.706Z,13.66
2023-08-07T06:50:08.569Z,13.69
2023-08-07T06:50:40.164Z,13.72
2023-08-07T06:51:11.743Z,13.66
2023-08-07T06:51:43.314Z,13.75
2023-08-07T06:52:14.822Z,13.74
2023-08-07T06:52:46.378Z,13.73
2023-08-07T06:53:18.094Z,13.72
2023-08-07T06:53:49.644Z,13.73
2023-08-07T06:54:21.222Z,13.75
2023-08-07T06:54:53.595Z,13.73
2023-08-07T06:55:25.204Z,13.77
2023-08-07T06:55:57.914Z,13.74
2023-08-07T06:56:29.645Z,13.78
2023-08-07T06:57:01.576Z,13.79
2023-08-07T06:57:33.183Z,13.80
2023-08-07T06:58:04.726Z,13.81